createdAt,value
2017-10-06T00:01:30.823Z,10.50
2017-10-06T00:04:00.550Z,10.50
2017-10-06T00:06:29.868Z,10.50
2017-10-06T00:08:59.594Z,10.60
2017-10-06T00:11:29.282Z,10.60
2017-10-06T00:13:59.026Z,10.60
2017-10-06T00:16:28.705Z,10.60
2017-10-06T00:18:58.424Z,10.60
2017-10-06T00:21:27.804Z,10.60
2017-10-06T00:23:57.529Z,10.60
2017-10-06T00:26:27.226Z,10.70
2017-10-06T00:28:56.922Z,10.60
2017-10-06T00:31:27.072Z,10.50
2017-10-06T00:33:56.410Z,10.50
2017-10-06T00:36:26.404Z,10.50
2017-10-06T00:38:56.067Z,10.40
2017-10-06T00:41:25.761Z,10.50
2017-10-06T00:43:56.238Z,10.40
2017-10-06T00:46:25.938Z,10.40
2017-10-06T00:48:55.638Z,10.40
2017-10-06T00:51:25.330Z,10.40
2017-10-06T00:53:54.683Z,10.40
2017-10-06T00:56:24.304Z,10.40
2017-10-06T00:58:53.079Z,10.40
2017-10-06T01:01:22.195Z,10.40
2017-10-06T01:03:51.590Z,10.40
2017-10-06T01:06:21.059Z,10.40
2017-10-06T01:08:50.778Z,10.40
2017-10-06T01:11:20.442Z,10.40
2017-10-06T01:13:51.123Z,10.40
2017-10-06T01:16:20.606Z,10.30
2017-10-06T01:18:50.531Z,10.30
2017-10-06T01:21:19.506Z,10.30
2017-10-06T01:23:48.286Z,10.30
2017-10-06T01:26:17.111Z,10.30
2017-10-06T01:28:45.874Z,10.40
2017-10-06T01:31:14.995Z,10.30
2017-10-06T01:33:44.006Z,10.40
2017-10-06T01:36:13.670Z,10.40
2017-10-06T01:38:43.474Z,10.40
2017-10-06T01:41:12.830Z,10.40
2017-10-06T01:43:41.947Z,10.40
2017-10-06T01:46:11.319Z,10.40
2017-10-06T01:48:40.994Z,10.40
2017-10-06T01:51:10.322Z,10.30
2017-10-06T01:53:40.810Z,10.40
2017-10-06T01:56:10.481Z,10.40
2017-10-06T01:58:40.515Z,10.40
2017-10-06T02:01:09.529Z,10.40
2017-10-06T02:03:38.983Z,10.40
2017-10-06T02:06:08.502Z,10.40
2017-10-06T02:08:37.822Z,10.40
2017-10-06T02:11:07.487Z,10.40
2017-10-06T02:13:37.458Z,10.40
2017-10-06T02:16:06.931Z,10.40
2017-10-06T02:18:36.076Z,10.40
2017-10-06T02:21:05.108Z,10.40
2017-10-06T02:23:34.803Z,10.40
2017-10-06T02:26:04.538Z,10.40
2017-10-06T02:28:33.840Z,10.40
2017-10-06T02:31:03.518Z,10.40
2017-10-06T02:33:33.038Z,10.40
2017-10-06T02:36:03.135Z,10.40
2017-10-06T02:38:32.858Z,10.40
2017-10-06T02:41:02.525Z,10.40
2017-10-06T02:43:32.439Z,10.40
2017-10-06T02:46:02.144Z,10.40
2017-10-06T02:48:32.663Z,10.30
2017-10-06T02:51:02.335Z,10.30
2017-10-06T02:53:32.046Z,10.30
2017-10-06T02:56:01.963Z,10.30
2017-10-06T02:58:31.675Z,10.30
2017-10-06T03:01:00.656Z,10.40
2017-10-06T03:03:30.118Z,10.40
2017-10-06T03:06:00.587Z,10.30
2017-10-06T03:08:30.254Z,10.30
2017-10-06T03:11:00.735Z,10.30
2017-10-06T03:13:30.411Z,10.30
2017-10-06T03:16:00.114Z,10.40
2017-10-06T03:18:29.779Z,10.40
2017-10-06T03:20:59.679Z,10.40
2017-10-06T03:23:29.354Z,10.40
2017-10-06T03:25:59.084Z,10.40
2017-10-06T03:28:28.754Z,10.40
2017-10-06T03:30:59.215Z,10.40
2017-10-06T03:33:28.896Z,10.30
2017-10-06T03:35:59.366Z,10.40
2017-10-06T03:38:29.027Z,10.40
2017-10-06T03:40:59.511Z,10.40
2017-10-06T03:43:29.207Z,10.40
2017-10-06T03:45:58.930Z,10.40
2017-10-06T03:48:28.595Z,10.40
2017-10-06T03:50:59.065Z,10.50
2017-10-06T03:53:28.768Z,10.40
2017-10-06T03:55:58.486Z,10.40
2017-10-06T03:58:28.150Z,10.40
2017-10-06T04:00:57.908Z,10.40
2017-10-06T04:03:27.776Z,10.30
2017-10-06T04:05:57.440Z,10.30
2017-10-06T04:08:27.898Z,10.20
2017-10-06T04:10:57.600Z,10.20
2017-10-06T04:13:27.258Z,10.20
2017-10-06T04:15:56.953Z,10.20
2017-10-06T04:18:26.637Z,10.20
2017-10-06T04:20:56.323Z,10.20
2017-10-06T04:23:26.756Z,10.20
2017-10-06T04:25:57.366Z,10.20
2017-10-06T04:28:27.798Z,10.20
2017-10-06T04:30:58.250Z,10.10
2017-10-06T04:33:27.964Z,10.20
2017-10-06T04:35:57.678Z,10.10
2017-10-06T04:38:27.467Z,10.20
2017-10-06T04:40:57.169Z,10.10
2017-10-06T04:43:26.838Z,10.10
2017-10-06T04:45:56.806Z,10.20
2017-10-06T04:48:26.458Z,10.20
2017-10-06T04:50:57.138Z,10.20
2017-10-06T04:53:26.806Z,10.20
2017-10-06T04:55:56.170Z,10.20
2017-10-06T04:58:25.831Z,10.20
2017-10-06T05:00:55.160Z,10.20
2017-10-06T05:03:24.662Z,10.20
2017-10-06T05:05:54.330Z,10.30
2017-10-06T05:08:24.808Z,10.30
2017-10-06T05:10:54.126Z,10.30
2017-10-06T05:13:23.808Z,10.30
2017-10-06T05:15:53.736Z,10.30
2017-10-06T05:18:23.399Z,10.30
2017-10-06T05:20:53.333Z,10.30
2017-10-06T05:23:22.811Z,10.30
2017-10-06T05:25:52.286Z,10.30
2017-10-06T05:28:22.171Z,10.30
2017-10-06T05:30:51.835Z,10.30
2017-10-06T05:33:22.316Z,10.30
2017-10-06T05:35:51.983Z,10.30
2017-10-06T05:38:22.455Z,10.30
2017-10-06T05:40:51.927Z,10.30
2017-10-06T05:43:21.619Z,10.30
2017-10-06T05:45:52.196Z,10.40
2017-10-06T05:48:21.862Z,10.40
2017-10-06T05:50:52.537Z,10.40
2017-10-06T05:53:22.203Z,10.40
2017-10-06T05:55:52.657Z,10.40
2017-10-06T05:58:21.974Z,10.40
2017-10-06T06:00:51.631Z,10.50
2017-10-06T06:03:22.098Z,10.50
2017-10-06T06:05:51.820Z,10.50
2017-10-06T06:08:21.507Z,10.50
2017-10-06T06:10:50.833Z,10.50
2017-10-06T06:13:21.333Z,10.50
2017-10-06T06:15:50.642Z,10.50
2017-10-06T06:18:20.319Z,10.50
2017-10-06T06:20:50.043Z,10.50
2017-10-06T06:23:19.701Z,10.50
2017-10-06T06:25:49.436Z,10.50
2017-10-06T06:28:18.405Z,10.50
2017-10-06T06:30:47.743Z,10.50
2017-10-06T06:33:17.456Z,10.50
2017-10-06T06:35:46.426Z,10.50
2017-10-06T06:38:16.883Z,10.50
2017-10-06T06:40:45.651Z,10.50
2017-10-06T06:43:15.941Z,10.60
2017-10-06T06:45:45.838Z,10.60
2017-10-06T06:48:15.005Z,10.60
2017-10-06T06:50:44.679Z,10.60
2017-10-06T06:53:14.254Z,10.60
2017-10-06T06:55:43.572Z,10.70
2017-10-06T06:58:13.282Z,10.80
2017-10-06T07:00:42.271Z,10.80
2017-10-06T07:03:11.734Z,10.90
2017-10-06T07:05:41.413Z,11.00
2017-10-06T07:08:11.508Z,11.00
2017-10-06T07:10:40.527Z,11.00
2017-10-06T07:13:10.762Z,10.90
2017-10-06T07:15:40.738Z,10.90
2017-10-06T07:18:09.866Z,10.90
2017-10-06T07:20:40.441Z,10.70
2017-10-06T07:23:09.949Z,10.70
2017-10-06T07:25:39.655Z,10.60
2017-10-06T07:28:08.675Z,10.50
2017-10-06T07:30:38.713Z,10.30
2017-10-06T07:33:08.030Z,10.20
2017-10-06T07:35:37.809Z,10.30
2017-10-06T07:38:07.284Z,10.20
2017-10-06T07:40:36.974Z,10.30
2017-10-06T07:43:06.646Z,10.30
2017-10-06T07:45:36.182Z,10.20
2017-10-06T07:48:05.685Z,10.20
2017-10-06T07:50:36.151Z,10.20
2017-10-06T07:53:05.815Z,10.20
2017-10-06T07:55:36.277Z,10.10
2017-10-06T07:58:05.942Z,10.10
2017-10-06T08:00:36.642Z,10.10
2017-10-06T08:03:06.293Z,10.10
2017-10-06T08:05:36.984Z,10.20
2017-10-06T08:08:06.646Z,10.20
2017-10-06T08:10:36.603Z,10.20
2017-10-06T08:13:06.278Z,10.20
2017-10-06T08:15:35.990Z,10.20
2017-10-06T08:18:05.657Z,10.20
2017-10-06T08:20:35.355Z,10.30
2017-10-06T08:23:05.039Z,10.30
2017-10-06T08:25:34.670Z,10.40
2017-10-06T08:28:04.341Z,10.50
2017-10-06T08:30:34.163Z,10.50
2017-10-06T08:33:03.479Z,10.60
2017-10-06T08:35:32.455Z,10.60
2017-10-06T08:38:01.826Z,10.70
2017-10-06T08:40:32.259Z,10.80
2017-10-06T08:43:02.730Z,10.80
2017-10-06T08:45:31.718Z,10.80
2017-10-06T08:48:01.376Z,10.90
2017-10-06T08:50:31.867Z,11.00
2017-10-06T08:53:01.874Z,11.00
2017-10-06T08:55:31.571Z,11.00
2017-10-06T08:58:01.398Z,11.00
2017-10-06T09:00:30.373Z,11.10
2017-10-06T09:02:59.874Z,11.10
2017-10-06T09:05:30.323Z,11.10
2017-10-06T09:08:00.035Z,11.00
2017-10-06T09:10:29.523Z,11.10
2017-10-06T09:12:59.988Z,10.90
2017-10-06T09:15:29.646Z,10.90
2017-10-06T09:17:59.919Z,11.10
2017-10-06T09:20:29.585Z,11.10
2017-10-06T09:23:00.047Z,11.30
2017-10-06T09:25:29.752Z,11.30
2017-10-06T09:27:59.429Z,11.30
2017-10-06T09:30:30.137Z,11.50
2017-10-06T09:32:59.800Z,11.50
2017-10-06T09:35:29.738Z,11.60
2017-10-06T09:37:59.414Z,11.60
2017-10-06T09:40:29.876Z,11.60
2017-10-06T09:42:59.567Z,11.60
2017-10-06T09:45:29.258Z,11.60
2017-10-06T09:47:59.737Z,11.60
2017-10-06T09:50:29.396Z,11.60
2017-10-06T09:52:59.951Z,11.70
2017-10-06T09:55:29.442Z,11.60
2017-10-06T09:57:59.167Z,11.60
2017-10-06T10:00:28.832Z,11.70
2017-10-06T10:02:59.096Z,11.50
2017-10-06T10:05:28.779Z,11.50
2017-10-06T10:07:59.251Z,11.60
2017-10-06T10:10:28.972Z,11.60
2017-10-06T10:12:58.655Z,11.60
2017-10-06T10:15:28.350Z,11.60
2017-10-06T10:17:58.015Z,11.60
2017-10-06T10:20:27.728Z,11.60
2017-10-06T10:22:57.403Z,11.50
2017-10-06T10:25:27.121Z,11.40
2017-10-06T10:27:56.781Z,11.30
2017-10-06T10:30:27.256Z,11.20
2017-10-06T10:32:56.982Z,11.20
2017-10-06T10:35:26.646Z,11.10
2017-10-06T10:37:56.356Z,11.00
2017-10-06T10:40:26.034Z,11.20
2017-10-06T10:42:55.749Z,11.30
2017-10-06T10:45:25.829Z,11.40
2017-10-06T10:47:55.132Z,11.40
2017-10-06T10:50:24.115Z,11.40
2017-10-06T10:52:52.904Z,11.60
2017-10-06T10:55:21.923Z,11.70
2017-10-06T10:57:50.690Z,11.80
2017-10-06T11:00:19.473Z,12.00
2017-10-06T11:02:48.579Z,12.10
2017-10-06T11:05:17.923Z,12.40
2017-10-06T11:07:46.895Z,12.60
2017-10-06T11:10:15.915Z,12.50
2017-10-06T11:12:46.013Z,12.60
2017-10-06T11:15:15.024Z,12.60
2017-10-06T11:17:44.562Z,12.30
2017-10-06T11:20:14.135Z,12.30
2017-10-06T11:22:43.152Z,12.10
2017-10-06T11:25:12.891Z,11.80
2017-10-06T11:27:42.008Z,11.80
2017-10-06T11:30:16.669Z,11.80
2017-10-06T11:32:46.890Z,11.80
2017-10-06T11:35:16.672Z,11.80
2017-10-06T11:37:46.584Z,11.80
2017-10-06T11:40:15.363Z,11.80
2017-10-06T11:42:44.372Z,11.80
2017-10-06T11:45:13.147Z,11.90
2017-10-06T11:47:42.115Z,12.00
2017-10-06T11:50:11.123Z,12.40
2017-10-06T11:52:39.882Z,12.80
2017-10-06T11:55:09.204Z,13.00
2017-10-06T11:57:38.576Z,13.20
2017-10-06T12:00:08.120Z,13.10
2017-10-06T12:02:37.249Z,13.10
2017-10-06T12:05:07.023Z,12.60
2017-10-06T12:07:35.792Z,12.60
2017-10-06T12:10:04.596Z,12.40
2017-10-06T12:12:33.618Z,12.10
2017-10-06T12:15:02.955Z,12.00
2017-10-06T12:17:32.498Z,11.90
2017-10-06T12:20:01.561Z,11.90
2017-10-06T12:22:31.111Z,12.70
2017-10-06T12:25:00.426Z,12.70
2017-10-06T12:27:30.752Z,12.70
2017-10-06T12:29:59.718Z,12.80
2017-10-06T12:32:28.538Z,13.00
2017-10-06T12:34:57.414Z,13.10
2017-10-06T12:37:26.546Z,13.00
2017-10-06T12:39:55.545Z,12.80
2017-10-06T12:42:24.532Z,13.30
2017-10-06T12:44:53.510Z,15.00
2017-10-06T12:47:23.219Z,16.80
2017-10-06T12:49:52.690Z,17.70
2017-10-06T12:52:21.411Z,17.70
2017-10-06T12:54:51.250Z,15.80
2017-10-06T12:57:19.961Z,15.70
2017-10-06T12:59:50.129Z,16.60
2017-10-06T13:02:18.676Z,16.60
2017-10-06T13:04:48.176Z,19.50
2017-10-06T13:07:17.687Z,18.80
2017-10-06T13:09:47.068Z,18.80
2017-10-06T13:12:15.844Z,17.70
2017-10-06T13:14:45.253Z,17.20
2017-10-06T13:17:14.314Z,16.10
2017-10-06T13:19:43.160Z,15.50
2017-10-06T13:22:12.495Z,15.00
2017-10-06T13:24:42.972Z,13.70
2017-10-06T13:27:12.654Z,13.70
2017-10-06T13:29:42.334Z,12.50
2017-10-06T13:32:12.303Z,12.10
2017-10-06T13:34:41.972Z,11.70
2017-10-06T13:37:12.439Z,11.40
2017-10-06T13:39:42.100Z,11.40
2017-10-06T13:42:12.571Z,11.30
2017-10-06T13:44:42.231Z,11.30
2017-10-06T13:47:12.713Z,11.30
2017-10-06T13:49:42.396Z,11.30
2017-10-06T13:52:12.098Z,11.30
2017-10-06T13:54:41.763Z,11.20
2017-10-06T13:57:11.463Z,11.10
2017-10-06T13:59:41.147Z,11.10
2017-10-06T14:02:11.815Z,11.20
2017-10-06T14:04:41.470Z,11.30
2017-10-06T14:07:11.186Z,11.20
2017-10-06T14:09:41.611Z,11.20
2017-10-06T14:12:12.068Z,11.20
2017-10-06T14:14:41.743Z,11.20
2017-10-06T14:17:12.211Z,11.30
2017-10-06T14:19:41.939Z,11.30
2017-10-06T14:22:11.608Z,11.40
2017-10-06T14:24:42.063Z,11.40
2017-10-06T14:27:11.891Z,11.30
2017-10-06T14:29:41.585Z,11.40
2017-10-06T14:32:11.479Z,11.40
2017-10-06T14:34:40.934Z,11.30
2017-10-06T14:37:10.642Z,11.10
2017-10-06T14:39:41.071Z,11.10
2017-10-06T14:42:10.771Z,11.00
2017-10-06T14:44:41.198Z,11.30
2017-10-06T14:47:11.680Z,11.50
2017-10-06T14:49:41.339Z,11.50
2017-10-06T14:52:11.790Z,11.60
2017-10-06T14:54:41.466Z,11.60
2017-10-06T14:57:11.219Z,11.70
2017-10-06T14:59:40.886Z,11.60
2017-10-06T15:02:10.575Z,11.60
2017-10-06T15:04:40.277Z,11.60
2017-10-06T15:07:09.944Z,11.70
2017-10-06T15:09:39.660Z,11.70
2017-10-06T15:12:10.103Z,11.70
2017-10-06T15:14:40.547Z,11.70
2017-10-06T15:17:10.215Z,11.70
2017-10-06T15:19:39.910Z,11.70
2017-10-06T15:22:09.693Z,11.70
2017-10-06T15:24:39.202Z,11.70
2017-10-06T15:27:08.704Z,11.70
2017-10-06T15:29:38.403Z,11.70
2017-10-06T15:32:08.104Z,11.80
2017-10-06T15:34:37.775Z,11.80
2017-10-06T15:37:07.771Z,11.80
2017-10-06T15:39:37.438Z,11.90
2017-10-06T15:42:07.911Z,11.80
2017-10-06T15:44:37.580Z,11.80
2017-10-06T15:47:07.313Z,11.90
2017-10-06T15:49:38.006Z,11.90
2017-10-06T15:52:08.479Z,11.80
2017-10-06T15:54:38.171Z,11.80
2017-10-06T15:57:08.116Z,11.90
2017-10-06T15:59:37.799Z,11.90
2017-10-06T16:02:07.504Z,11.90
2017-10-06T16:04:37.160Z,11.90
2017-10-06T16:07:07.099Z,11.90
2017-10-06T16:09:37.532Z,11.90
2017-10-06T16:12:08.701Z,11.90
2017-10-06T16:14:39.263Z,11.90
2017-10-06T16:17:09.883Z,11.90
2017-10-06T16:19:40.631Z,11.90
2017-10-06T16:22:11.554Z,11.90
2017-10-06T16:24:41.579Z,11.80
2017-10-06T16:27:11.263Z,11.80
2017-10-06T16:29:40.955Z,11.70
2017-10-06T16:32:11.389Z,11.70
2017-10-06T16:34:41.668Z,11.60
2017-10-06T16:37:11.152Z,11.60
2017-10-06T16:39:40.848Z,11.60
2017-10-06T16:42:10.560Z,11.60
2017-10-06T16:44:40.246Z,11.60
2017-10-06T16:47:09.795Z,11.50
2017-10-06T16:49:39.472Z,11.50
2017-10-06T16:52:09.943Z,11.30
2017-10-06T16:54:39.604Z,11.30
2017-10-06T16:57:10.089Z,11.30
2017-10-06T16:59:39.780Z,11.30
2017-10-06T17:02:09.504Z,11.30
2017-10-06T17:04:39.260Z,11.30
2017-10-06T17:07:09.712Z,11.30
2017-10-06T17:09:39.384Z,11.30
2017-10-06T17:12:10.294Z,11.20
2017-10-06T17:14:39.973Z,11.20
2017-10-06T17:17:09.490Z,11.20
2017-10-06T17:19:39.100Z,11.20
2017-10-06T17:22:08.777Z,11.20
2017-10-06T17:24:39.230Z,11.10
2017-10-06T17:27:08.902Z,11.10
2017-10-06T17:29:38.586Z,11.10
2017-10-06T17:32:08.290Z,11.10
2017-10-06T17:34:37.766Z,11.10
2017-10-06T17:37:07.467Z,11.00
2017-10-06T17:39:37.152Z,11.00
2017-10-06T17:42:06.747Z,11.00
2017-10-06T17:44:36.445Z,11.00
2017-10-06T17:47:06.143Z,11.00
2017-10-06T17:49:35.830Z,11.00
2017-10-06T17:52:07.235Z,11.00
2017-10-06T17:54:36.909Z,11.00
2017-10-06T17:57:06.614Z,11.10
2017-10-06T17:59:36.558Z,11.10
2017-10-06T18:02:06.910Z,11.00
2017-10-06T18:04:36.711Z,11.10
2017-10-06T18:07:06.389Z,11.10
2017-10-06T18:09:36.108Z,11.10
2017-10-06T18:12:05.778Z,11.10
2017-10-06T18:14:36.274Z,11.00
2017-10-06T18:17:05.949Z,11.00
2017-10-06T18:19:35.636Z,11.00
2017-10-06T18:22:06.126Z,10.90
2017-10-06T18:24:35.792Z,10.90
2017-10-06T18:27:05.491Z,10.90
2017-10-06T18:29:35.187Z,10.90
2017-10-06T18:32:06.569Z,10.80
2017-10-06T18:34:36.228Z,10.80
2017-10-06T18:37:05.972Z,10.80
2017-10-06T18:39:35.689Z,10.70
2017-10-06T18:42:05.700Z,10.70
2017-10-06T18:44:35.218Z,10.60
2017-10-06T18:47:04.893Z,10.50
2017-10-06T18:49:34.592Z,10.50
2017-10-06T18:52:04.563Z,10.50
2017-10-06T18:54:34.279Z,10.40
2017-10-06T18:57:04.766Z,10.40
2017-10-06T18:59:34.528Z,10.40
2017-10-06T19:02:05.203Z,10.40
2017-10-06T19:04:34.932Z,10.40
2017-10-06T19:07:04.618Z,10.40
2017-10-06T19:09:34.550Z,10.40
2017-10-06T19:12:04.999Z,10.30
2017-10-06T19:14:35.293Z,10.30
2017-10-06T19:17:04.994Z,10.30
2017-10-06T19:19:34.540Z,10.30
2017-10-06T19:22:04.221Z,10.30
2017-10-06T19:24:33.934Z,10.30
2017-10-06T19:27:03.666Z,10.30
2017-10-06T19:29:33.615Z,10.20
2017-10-06T19:32:04.090Z,10.20
2017-10-06T19:34:34.005Z,10.20
2017-10-06T19:37:03.675Z,10.20
2017-10-06T19:39:34.158Z,10.20
2017-10-06T19:42:03.649Z,10.20
2017-10-06T19:44:33.143Z,10.20
2017-10-06T19:47:02.745Z,10.20
2017-10-06T19:49:32.414Z,10.10
2017-10-06T19:52:02.884Z,10.10
2017-10-06T19:54:32.982Z,10.10
2017-10-06T19:57:02.703Z,10.10
2017-10-06T19:59:33.135Z,10.10
2017-10-06T20:02:03.639Z,10.10
2017-10-06T20:04:33.320Z,10.10
2017-10-06T20:07:03.072Z,10.10
2017-10-06T20:09:32.801Z,10.10
2017-10-06T20:12:03.235Z,10.00
2017-10-06T20:14:34.551Z,10.00
2017-10-06T20:17:04.232Z,10.00
2017-10-06T20:19:33.910Z,10.00
2017-10-06T20:22:03.802Z,9.90
2017-10-06T20:24:33.471Z,9.90
2017-10-06T20:27:05.423Z,9.90
2017-10-06T20:29:35.135Z,9.90
2017-10-06T20:32:04.912Z,9.90
2017-10-06T20:34:34.604Z,9.90
2017-10-06T20:37:05.122Z,9.90
2017-10-06T20:39:34.623Z,9.90
2017-10-06T20:42:04.323Z,9.90
2017-10-06T20:44:34.225Z,9.90
2017-10-06T20:47:03.938Z,9.90
2017-10-06T20:49:33.829Z,9.90
2017-10-06T20:52:03.515Z,9.80
2017-10-06T20:54:33.932Z,9.90
2017-10-06T20:57:04.433Z,9.80
2017-10-06T20:59:33.967Z,9.80
2017-10-06T21:02:04.401Z,9.80
2017-10-06T21:04:34.130Z,9.80
2017-10-06T21:07:03.799Z,9.80
2017-10-06T21:09:34.263Z,9.80
2017-10-06T21:12:03.952Z,9.80
2017-10-06T21:14:35.043Z,9.80
2017-10-06T21:17:04.714Z,9.70
2017-10-06T21:19:34.414Z,9.80
2017-10-06T21:22:04.853Z,9.80
2017-10-06T21:24:34.576Z,9.70
2017-10-06T21:27:04.243Z,9.80
2017-10-06T21:29:34.123Z,9.70
2017-10-06T21:32:03.813Z,9.70
2017-10-06T21:34:33.339Z,9.70
2017-10-06T21:37:03.011Z,9.70
2017-10-06T21:39:32.976Z,9.80
2017-10-06T21:42:02.656Z,9.70
2017-10-06T21:44:32.372Z,9.80
2017-10-06T21:47:02.095Z,9.80
2017-10-06T21:49:31.834Z,9.70
2017-10-06T21:52:01.532Z,9.70
2017-10-06T21:54:31.223Z,9.80
2017-10-06T21:57:00.890Z,9.80
2017-10-06T21:59:31.372Z,9.80
2017-10-06T22:02:01.056Z,9.80
2017-10-06T22:04:30.993Z,9.80
2017-10-06T22:07:00.591Z,9.70
2017-10-06T22:09:30.320Z,9.80
2017-10-06T22:11:59.997Z,9.80
2017-10-06T22:14:29.831Z,9.70
2017-10-06T22:16:59.508Z,9.70
2017-10-06T22:19:29.214Z,9.70
2017-10-06T22:21:58.901Z,9.70
2017-10-06T22:24:28.589Z,9.70
2017-10-06T22:26:58.255Z,9.70
2017-10-06T22:29:28.196Z,9.70
2017-10-06T22:31:57.681Z,9.70
2017-10-06T22:34:27.615Z,9.70
2017-10-06T22:36:57.286Z,9.70
2017-10-06T22:39:27.030Z,9.70
2017-10-06T22:41:56.707Z,9.70
2017-10-06T22:44:27.173Z,9.60
2017-10-06T22:46:56.850Z,9.60
2017-10-06T22:49:26.578Z,9.60
2017-10-06T22:51:56.052Z,9.60
2017-10-06T23:00:46.737Z,9.60
2017-10-06T23:03:16.978Z,9.50
2017-10-06T23:05:47.072Z,9.60
2017-10-06T23:08:16.352Z,9.50
2017-10-06T23:10:46.025Z,9.60
2017-10-06T23:13:15.761Z,9.50
2017-10-06T23:15:45.427Z,9.60
2017-10-06T23:18:15.156Z,9.50
2017-10-06T23:20:44.827Z,9.60
2017-10-06T23:23:15.126Z,9.50
2017-10-06T23:25:44.787Z,9.50
2017-10-06T23:28:15.294Z,9.50
2017-10-06T23:30:44.955Z,9.50
2017-10-06T23:33:14.708Z,9.50
2017-10-06T23:35:44.380Z,9.50
2017-10-06T23:38:14.080Z,9.50
2017-10-06T23:40:43.834Z,9.50
2017-10-06T23:43:13.499Z,9.50
2017-10-06T23:45:43.221Z,9.40
2017-10-06T23:48:12.541Z,9.40
2017-10-06T23:50:42.266Z,9.50
2017-10-06T23:53:11.934Z,9.50
2017-10-06T23:55:41.678Z,9.50
2017-10-06T23:58:11.368Z,9.40
